sensor_id;sensor_type;location;lat;lon;timestamp;pressure;altitude;pressure_sealevel;temperature;humidity
56944;BME280;42848;42.524;12.052;2022-08-01T00:00:26;96651.09;;;25.33;57.64
56944;BME280;42848;42.524;12.052;2022-08-01T00:02:51;96646.22;;;25.10;58.34
56944;BME280;42848;42.524;12.052;2022-08-01T00:05:17;96649.34;;;25.12;58.82
56944;BME280;42848;42.524;12.052;2022-08-01T00:07:43;96649.34;;;25.16;58.45
56944;BME280;42848;42.524;12.052;2022-08-01T00:10:13;96649.53;;;24.98;59.02
56944;BME280;42848;42.524;12.052;2022-08-01T00:12:40;96643.09;;;25.05;59.36
56944;BME280;42848;42.524;12.052;2022-08-01T00:15:08;96639.16;;;25.06;58.81
56944;BME280;42848;42.524;12.052;2022-08-01T00:17:34;96633.31;;;24.93;59.10
56944;BME280;42848;42.524;12.052;2022-08-01T00:20:01;96630.22;;;24.87;59.75
56944;BME280;42848;42.524;12.052;2022-08-01T00:22:29;96627.72;;;24.96;58.96
56944;BME280;42848;42.524;12.052;2022-08-01T00:24:55;96625.41;;;24.91;59.49
56944;BME280;42848;42.524;12.052;2022-08-01T00:27:21;96634.47;;;24.95;58.87
56944;BME280;42848;42.524;12.052;2022-08-01T00:29:46;96630.19;;;24.91;58.82
56944;BME280;42848;42.524;12.052;2022-08-01T00:32:12;96628.25;;;24.88;58.60
56944;BME280;42848;42.524;12.052;2022-08-01T00:34:38;96628.59;;;24.90;58.29
56944;BME280;42848;42.524;12.052;2022-08-01T00:37:03;96627.41;;;24.91;58.13
56944;BME280;42848;42.524;12.052;2022-08-01T00:39:29;96630.44;;;25.04;57.05
56944;BME280;42848;42.524;12.052;2022-08-01T00:41:55;96623.31;;;24.99;56.29
56944;BME280;42848;42.524;12.052;2022-08-01T00:44:20;96625.63;;;25.08;55.94
56944;BME280;42848;42.524;12.052;2022-08-01T00:46:46;96624.47;;;25.02;56.24
56944;BME280;42848;42.524;12.052;2022-08-01T00:49:12;96624.13;;;24.96;55.92
56944;BME280;42848;42.524;12.052;2022-08-01T00:51:38;96618.69;;;24.89;55.66
56944;BME280;42848;42.524;12.052;2022-08-01T00:54:04;96613.88;;;24.93;55.79
56944;BME280;42848;42.524;12.052;2022-08-01T00:56:30;96617.50;;;24.90;55.55
56944;BME280;42848;42.524;12.052;2022-08-01T00:58:56;96616.53;;;25.04;54.58
56944;BME280;42848;42.524;12.052;2022-08-01T01:01:22;96615.03;;;24.95;54.71
56944;BME280;42848;42.524;12.052;2022-08-01T01:03:49;96615.31;;;25.08;53.82
56944;BME280;42848;42.524;12.052;2022-08-01T01:06:26;96618.13;;;25.01;54.10
56944;BME280;42848;42.524;12.052;2022-08-01T01:09:28;96620.84;;;25.08;53.84
56944;BME280;42848;42.524;12.052;2022-08-01T01:17:24;96611.66;;;25.15;53.54
56944;BME280;42848;42.524;12.052;2022-08-01T01:19:54;96622.13;;;25.00;53.25
56944;BME280;42848;42.524;12.052;2022-08-01T01:22:33;96619.44;;;24.93;53.83
56944;BME280;42848;42.524;12.052;2022-08-01T01:30:34;96617.94;;;24.85;54.48
56944;BME280;42848;42.524;12.052;2022-08-01T01:33:05;96614.81;;;24.83;54.31
56944;BME280;42848;42.524;12.052;2022-08-01T01:35:37;96607.31;;;24.80;54.95
56944;BME280;42848;42.524;12.052;2022-08-01T01:38:09;96613.22;;;24.82;55.15
56944;BME280;42848;42.524;12.052;2022-08-01T01:40:36;96611.38;;;24.72;55.73
56944;BME280;42848;42.524;12.052;2022-08-01T01:43:02;96613.44;;;24.64;56.27
56944;BME280;42848;42.524;12.052;2022-08-01T01:45:28;96610.25;;;24.65;55.83
56944;BME280;42848;42.524;12.052;2022-08-01T01:47:56;96604.78;;;24.58;56.70
56944;BME280;42848;42.524;12.052;2022-08-01T01:50:23;96602.22;;;24.75;55.27
56944;BME280;42848;42.524;12.052;2022-08-01T01:52:50;96605.47;;;24.70;56.06
56944;BME280;42848;42.524;12.052;2022-08-01T01:55:19;96613.91;;;24.59;56.80
56944;BME280;42848;42.524;12.052;2022-08-01T01:57:48;96617.38;;;24.66;57.08
56944;BME280;42848;42.524;12.052;2022-08-01T02:00:15;96608.03;;;24.53;57.23
56944;BME280;42848;42.524;12.052;2022-08-01T02:02:42;96612.78;;;24.53;57.56
56944;BME280;42848;42.524;12.052;2022-08-01T02:05:11;96619.13;;;24.53;57.10
56944;BME280;42848;42.524;12.052;2022-08-01T02:07:39;96615.16;;;24.54;57.32
56944;BME280;42848;42.524;12.052;2022-08-01T02:10:06;96616.28;;;24.60;56.60
56944;BME280;42848;42.524;12.052;2022-08-01T02:12:35;96615.22;;;24.47;56.57
56944;BME280;42848;42.524;12.052;2022-08-01T02:15:03;96615.94;;;24.55;56.43
56944;BME280;42848;42.524;12.052;2022-08-01T02:17:29;96616.00;;;24.51;55.89
56944;BME280;42848;42.524;12.052;2022-08-01T02:19:56;96620.69;;;24.54;55.77
56944;BME280;42848;42.524;12.052;2022-08-01T02:22:42;96615.78;;;24.69;55.60
56944;BME280;42848;42.524;12.052;2022-08-01T02:25:23;96611.16;;;24.55;55.25
56944;BME280;42848;42.524;12.052;2022-08-01T02:28:08;96600.97;;;24.45;54.97
56944;BME280;42848;42.524;12.052;2022-08-01T02:30:36;96607.94;;;24.60;54.57
56944;BME280;42848;42.524;12.052;2022-08-01T02:33:19;96614.50;;;24.39;54.41
56944;BME280;42848;42.524;12.052;2022-08-01T02:35:49;96612.53;;;24.40;55.10
56944;BME280;42848;42.524;12.052;2022-08-01T02:38:17;96611.97;;;24.56;54.26
56944;BME280;42848;42.524;12.052;2022-08-01T02:40:46;96615.56;;;24.53;55.50
56944;BME280;42848;42.524;12.052;2022-08-01T02:43:16;96616.06;;;24.44;54.69
56944;BME280;42848;42.524;12.052;2022-08-01T02:45:48;96616.97;;;24.34;55.15
56944;BME280;42848;42.524;12.052;2022-08-01T02:48:17;96608.28;;;24.28;55.48
56944;BME280;42848;42.524;12.052;2022-08-01T02:50:46;96610.22;;;24.35;55.29
56944;BME280;42848;42.524;12.052;2022-08-01T02:53:13;96612.91;;;24.42;55.03
56944;BME280;42848;42.524;12.052;2022-08-01T02:55:41;96608.94;;;24.43;55.55
56944;BME280;42848;42.524;12.052;2022-08-01T02:58:09;96610.59;;;24.37;55.62
56944;BME280;42848;42.524;12.052;2022-08-01T03:00:37;96608.84;;;24.50;56.02
56944;BME280;42848;42.524;12.052;2022-08-01T03:03:06;96603.22;;;24.57;55.66
56944;BME280;42848;42.524;12.052;2022-08-01T03:05:35;96609.69;;;24.47;55.62
56944;BME280;42848;42.524;12.052;2022-08-01T03:08:01;96613.66;;;24.46;55.98
56944;BME280;42848;42.524;12.052;2022-08-01T03:10:28;96608.19;;;24.39;56.38
56944;BME280;42848;42.524;12.052;2022-08-01T03:12:57;96607.31;;;24.46;55.92
56944;BME280;42848;42.524;12.052;2022-08-01T03:15:25;96611.16;;;24.55;55.63
56944;BME280;42848;42.524;12.052;2022-08-01T03:17:52;96613.88;;;24.62;55.20
56944;BME280;42848;42.524;12.052;2022-08-01T03:20:21;96608.25;;;24.32;56.44
56944;BME280;42848;42.524;12.052;2022-08-01T03:22:50;96612.72;;;24.60;56.02
56944;BME280;42848;42.524;12.052;2022-08-01T03:25:18;96611.25;;;24.48;56.05
56944;BME280;42848;42.524;12.052;2022-08-01T03:28:02;96613.03;;;24.28;57.39
56944;BME280;42848;42.524;12.052;2022-08-01T03:30:29;96611.22;;;24.52;57.02
56944;BME280;42848;42.524;12.052;2022-08-01T03:32:56;96611.53;;;24.57;57.56
56944;BME280;42848;42.524;12.052;2022-08-01T03:35:45;96612.75;;;24.56;57.98
56944;BME280;42848;42.524;12.052;2022-08-01T03:38:13;96622.34;;;24.48;58.21
56944;BME280;42848;42.524;12.052;2022-08-01T03:41:02;96617.28;;;23.98;61.14
56944;BME280;42848;42.524;12.052;2022-08-01T03:43:50;96611.56;;;24.16;61.06
56944;BME280;42848;42.524;12.052;2022-08-01T03:46:20;96608.81;;;24.12;60.91
56944;BME280;42848;42.524;12.052;2022-08-01T03:48:50;96609.06;;;24.32;61.06
56944;BME280;42848;42.524;12.052;2022-08-01T03:51:21;96610.38;;;24.55;60.09
56944;BME280;42848;42.524;12.052;2022-08-01T03:53:49;96600.59;;;24.05;62.24
56944;BME280;42848;42.524;12.052;2022-08-01T03:56:18;96601.28;;;24.13;61.46
56944;BME280;42848;42.524;12.052;2022-08-01T03:58:45;96623.22;;;24.00;62.27
56944;BME280;42848;42.524;12.052;2022-08-01T04:01:12;96606.03;;;24.12;61.70
56944;BME280;42848;42.524;12.052;2022-08-01T04:03:38;96621.47;;;24.13;62.52
56944;BME280;42848;42.524;12.052;2022-08-01T04:06:05;96615.56;;;24.11;62.15
56944;BME280;42848;42.524;12.052;2022-08-01T04:08:40;96619.38;;;24.28;61.29
56944;BME280;42848;42.524;12.052;2022-08-01T04:11:08;96619.72;;;23.93;62.91
56944;BME280;42848;42.524;12.052;2022-08-01T04:13:34;96616.53;;;23.94;63.36
56944;BME280;42848;42.524;12.052;2022-08-01T04:16:00;96618.19;;;23.88;63.30
56944;BME280;42848;42.524;12.052;2022-08-01T04:18:26;96615.72;;;23.97;62.08
56944;BME280;42848;42.524;12.052;2022-08-01T04:20:51;96617.44;;;23.80;62.79
56944;BME280;42848;42.524;12.052;2022-08-01T04:23:20;96622.00;;;24.01;61.50
56944;BME280;42848;42.524;12.052;2022-08-01T04:25:48;96621.78;;;23.81;61.99
56944;BME280;42848;42.524;12.052;2022-08-01T04:28:16;96622.63;;;23.78;61.81
56944;BME280;42848;42.524;12.052;2022-08-01T04:30:44;96626.59;;;23.74;61.77
56944;BME280;42848;42.524;12.052;2022-08-01T04:33:13;96620.22;;;23.77;62.56
56944;BME280;42848;42.524;12.052;2022-08-01T04:35:44;96622.63;;;23.78;61.98
56944;BME280;42848;42.524;12.052;2022-08-01T04:38:16;96631.72;;;23.75;61.91
56944;BME280;42848;42.524;12.052;2022-08-01T04:40:45;96635.41;;;23.62;63.05
56944;BME280;42848;42.524;12.052;2022-08-01T04:43:11;96631.03;;;23.64;62.65
56944;BME280;42848;42.524;12.052;2022-08-01T04:45:38;96634.66;;;23.54;63.94
56944;BME280;42848;42.524;12.052;2022-08-01T04:48:07;96635.66;;;23.81;61.72
56944;BME280;42848;42.524;12.052;2022-08-01T04:50:34;96627.09;;;23.62;62.03
56944;BME280;42848;42.524;12.052;2022-08-01T04:53:00;96632.59;;;23.69;62.71
56944;BME280;42848;42.524;12.052;2022-08-01T04:55:29;96636.19;;;23.59;61.95
56944;BME280;42848;42.524;12.052;2022-08-01T04:57:56;96631.41;;;23.66;62.76
56944;BME280;42848;42.524;12.052;2022-08-01T05:00:22;96635.63;;;23.85;62.00
56944;BME280;42848;42.524;12.052;2022-08-01T05:02:47;96638.06;;;23.76;62.55
56944;BME280;42848;42.524;12.052;2022-08-01T05:05:13;96638.06;;;23.76;62.33
56944;BME280;42848;42.524;12.052;2022-08-01T05:07:40;96633.34;;;23.73;61.84
56944;BME280;42848;42.524;12.052;2022-08-01T05:10:06;96641.28;;;23.71;62.63
56944;BME280;42848;42.524;12.052;2022-08-01T05:12:31;96641.25;;;23.78;61.09
56944;BME280;42848;42.524;12.052;2022-08-01T05:14:58;96641.09;;;23.92;60.72
56944;BME280;42848;42.524;12.052;2022-08-01T05:17:24;96642.63;;;24.00;59.28
56944;BME280;42848;42.524;12.052;2022-08-01T05:19:50;96657.53;;;24.17;59.97
56944;BME280;42848;42.524;12.052;2022-08-01T05:22:16;96654.47;;;24.04;60.01
56944;BME280;42848;42.524;12.052;2022-08-01T05:24:42;96653.25;;;24.09;57.92
56944;BME280;42848;42.524;12.052;2022-08-01T05:27:08;96657.59;;;24.10;58.03
56944;BME280;42848;42.524;12.052;2022-08-01T05:29:34;96662.22;;;24.24;57.83
56944;BME280;42848;42.524;12.052;2022-08-01T05:32:01;96659.41;;;24.27;58.55
56944;BME280;42848;42.524;12.052;2022-08-01T05:34:28;96659.44;;;24.24;57.04
56944;BME280;42848;42.524;12.052;2022-08-01T05:36:53;96664.69;;;24.15;55.91
56944;BME280;42848;42.524;12.052;2022-08-01T05:39:19;96664.50;;;24.36;55.76
56944;BME280;42848;42.524;12.052;2022-08-01T05:41:45;96672.31;;;24.48;55.48
56944;BME280;42848;42.524;12.052;2022-08-01T05:44:11;96672.44;;;24.30;55.44
56944;BME280;42848;42.524;12.052;2022-08-01T05:46:37;96666.91;;;24.34;54.88
56944;BME280;42848;42.524;12.052;2022-08-01T05:49:04;96679.88;;;24.44;55.43
56944;BME280;42848;42.524;12.052;2022-08-01T05:51:30;96673.22;;;24.31;53.66
56944;BME280;42848;42.524;12.052;2022-08-01T05:53:57;96680.75;;;24.37;54.50
56944;BME280;42848;42.524;12.052;2022-08-01T05:56:23;96681.00;;;24.50;52.77
56944;BME280;42848;42.524;12.052;2022-08-01T05:58:49;96686.53;;;24.50;52.59
56944;BME280;42848;42.524;12.052;2022-08-01T06:01:17;96690.47;;;24.56;52.44
56944;BME280;42848;42.524;12.052;2022-08-01T06:03:43;96682.50;;;24.58;52.40
56944;BME280;42848;42.524;12.052;2022-08-01T06:06:08;96674.03;;;24.73;52.86
56944;BME280;42848;42.524;12.052;2022-08-01T06:08:34;96682.72;;;24.75;53.61
56944;BME280;42848;42.524;12.052;2022-08-01T06:11:00;96692.56;;;24.83;53.94
56944;BME280;42848;42.524;12.052;2022-08-01T06:13:26;96688.56;;;24.84;52.67
56944;BME280;42848;42.524;12.052;2022-08-01T06:15:51;96689.66;;;24.93;53.57
56944;BME280;42848;42.524;12.052;2022-08-01T06:18:17;96696.34;;;24.96;53.04
56944;BME280;42848;42.524;12.052;2022-08-01T06:20:44;96700.25;;;25.06;52.38
56944;BME280;42848;42.524;12.052;2022-08-01T06:23:10;96697.00;;;25.11;53.10
56944;BME280;42848;42.524;12.052;2022-08-01T06:25:36;96704.91;;;25.12;53.40
56944;BME280;42848;42.524;12.052;2022-08-01T06:28:02;96701.31;;;25.15;53.54
56944;BME280;42848;42.524;12.052;2022-08-01T06:30:28;96712.25;;;25.30;56.19
56944;BME280;42848;42.524;12.052;2022-08-01T06:32:54;96709.03;;;25.31;52.82
56944;BME280;42848;42.524;12.052;2022-08-01T06:35:23;96706.13;;;25.42;53.02
56944;BME280;42848;42.524;12.052;2022-08-01T06:37:49;96715.22;;;25.46;53.05
56944;BME280;42848;42.524;12.052;2022-08-01T06:40:15;96710.84;;;25.45;53.10
56944;BME280;42848;42.524;12.052;2022-08-01T06:42:41;96712.38;;;25.49;53.33
56944;BME280;42848;42.524;12.052;2022-08-01T06:45:11;96714.00;;;25.47;51.62
56944;BME280;42848;42.524;12.052;2022-08-01T06:47:38;96715.53;;;25.51;52.61
56944;BME280;42848;42.524;12.052;2022-08-01T06:50:06;96721.03;;;25.55;53.70
56944;BME280;42848;42.524;12.052;2022-08-01T06:52:32;96719.41;;;25.58;54.15
56944;BME280;42848;42.524;12.052;2022-08-01T06:54:59;96727.59;;;25.68;56.06
56944;BME280;42848;42.524;12.052;2022-08-01T06:57:25;96729.75;;;25.57;51.49
56944;BME280;42848;42.524;12.052;2022-08-01T06:59:51;96724.81;;;25.68;52.35
56944;BME280;42848;42.524;12.052;2022-08-01T07:02:16;96727.88;;;25.77;58.31
56944;BME280;42848;42.524;12.052;2022-08-01T07:04:42;96732.72;;;25.73;53.56
56944;BME280;42848;42.524;12.052;2022-08-01T07:07:08;96727.50;;;25.79;59.06
56944;BME280;42848;42.524;12.052;2022-08-01T07:09:34;96732.63;;;25.80;61.17
56944;BME280;42848;42.524;12.052;2022-08-01T07:12:00;96733.44;;;25.77;64.13
56944;BME280;42848;42.524;12.052;2022-08-01T07:14:25;96731.16;;;25.72;64.23
56944;BME280;42848;42.524;12.052;2022-08-01T07:16:51;96735.03;;;25.78;63.90
56944;BME280;42848;42.524;12.052;2022-08-01T07:19:17;96731.94;;;25.69;62.64
56944;BME280;42848;42.524;12.052;2022-08-01T07:21:43;96742.19;;;25.79;65.11
56944;BME280;42848;42.524;12.052;2022-08-01T07:24:11;96733.72;;;25.87;63.39
56944;BME280;42848;42.524;12.052;2022-08-01T07:26:38;96725.34;;;25.90;64.17
56944;BME280;42848;42.524;12.052;2022-08-01T07:29:04;96731.00;;;25.83;63.03
56944;BME280;42848;42.524;12.052;2022-08-01T07:31:30;96728.13;;;25.90;62.97
56944;BME280;42848;42.524;12.052;2022-08-01T07:33:56;96726.16;;;25.87;60.37
56944;BME280;42848;42.524;12.052;2022-08-01T07:36:21;96719.13;;;26.06;61.96
56944;BME280;42848;42.524;12.052;2022-08-01T07:38:47;96719.50;;;26.08;63.17
56944;BME280;42848;42.524;12.052;2022-08-01T07:41:13;96729.88;;;26.04;58.79
56944;BME280;42848;42.524;12.052;2022-08-01T07:43:39;96719.53;;;26.04;58.74
56944;BME280;42848;42.524;12.052;2022-08-01T07:46:05;96721.84;;;26.09;55.72
56944;BME280;42848;42.524;12.052;2022-08-01T07:48:31;96719.00;;;26.13;55.77
56944;BME280;42848;42.524;12.052;2022-08-01T07:50:57;96713.84;;;26.12;53.75
56944;BME280;42848;42.524;12.052;2022-08-01T07:53:23;96714.06;;;26.24;55.75
56944;BME280;42848;42.524;12.052;2022-08-01T07:55:49;96726.56;;;26.13;55.67
56944;BME280;42848;42.524;12.052;2022-08-01T07:58:15;96718.66;;;26.34;56.54
56944;BME280;42848;42.524;12.052;2022-08-01T08:00:41;96716.78;;;26.28;54.37
56944;BME280;42848;42.524;12.052;2022-08-01T08:03:07;96723.19;;;26.25;53.26
56944;BME280;42848;42.524;12.052;2022-08-01T08:05:33;96722.03;;;26.22;54.82
56944;BME280;42848;42.524;12.052;2022-08-01T08:08:07;96723.00;;;26.35;55.21
56944;BME280;42848;42.524;12.052;2022-08-01T08:10:33;96718.28;;;26.32;50.80
56944;BME280;42848;42.524;12.052;2022-08-01T08:12:59;96724.06;;;26.45;49.51
56944;BME280;42848;42.524;12.052;2022-08-01T08:15:26;96724.22;;;26.58;50.68
56944;BME280;42848;42.524;12.052;2022-08-01T08:17:51;96718.72;;;26.54;51.70
56944;BME280;42848;42.524;12.052;2022-08-01T08:20:17;96724.09;;;26.65;47.85
56944;BME280;42848;42.524;12.052;2022-08-01T08:22:43;96722.19;;;26.62;49.02
56944;BME280;42848;42.524;12.052;2022-08-01T08:25:08;96722.31;;;26.55;50.18
56944;BME280;42848;42.524;12.052;2022-08-01T08:27:35;96730.38;;;26.69;51.29
56944;BME280;42848;42.524;12.052;2022-08-01T08:30:04;96738.88;;;26.62;47.88
56944;BME280;42848;42.524;12.052;2022-08-01T08:32:33;96729.25;;;26.67;47.52
56944;BME280;42848;42.524;12.052;2022-08-01T08:34:58;96736.13;;;26.82;45.60
56944;BME280;42848;42.524;12.052;2022-08-01T08:37:24;96732.25;;;26.76;47.26
56944;BME280;42848;42.524;12.052;2022-08-01T08:39:50;96735.69;;;26.83;47.91
56944;BME280;42848;42.524;12.052;2022-08-01T08:42:15;96737.28;;;26.84;46.15
56944;BME280;42848;42.524;12.052;2022-08-01T08:44:42;96734.00;;;26.89;45.99
56944;BME280;42848;42.524;12.052;2022-08-01T08:47:11;96741.81;;;26.98;44.68
56944;BME280;42848;42.524;12.052;2022-08-01T08:49:37;96737.63;;;27.10;46.59
56944;BME280;42848;42.524;12.052;2022-08-01T08:52:04;96740.84;;;27.08;40.03
56944;BME280;42848;42.524;12.052;2022-08-01T08:54:30;96742.84;;;27.08;39.90
56944;BME280;42848;42.524;12.052;2022-08-01T08:56:59;96752.47;;;27.23;43.06
56944;BME280;42848;42.524;12.052;2022-08-01T08:59:25;96751.97;;;27.28;43.73
56944;BME280;42848;42.524;12.052;2022-08-01T09:01:51;96751.81;;;27.15;43.37
56944;BME280;42848;42.524;12.052;2022-08-01T09:04:17;96752.69;;;27.32;43.20
56944;BME280;42848;42.524;12.052;2022-08-01T09:06:43;96754.63;;;27.35;41.41
56944;BME280;42848;42.524;12.052;2022-08-01T09:09:10;96754.47;;;27.42;43.08
56944;BME280;42848;42.524;12.052;2022-08-01T09:11:36;96756.91;;;27.40;39.77
56944;BME280;42848;42.524;12.052;2022-08-01T09:14:17;96753.41;;;27.36;38.82
56944;BME280;42848;42.524;12.052;2022-08-01T09:17:03;96757.63;;;27.44;41.35
56944;BME280;42848;42.524;12.052;2022-08-01T09:19:37;96752.25;;;27.54;40.75
56944;BME280;42848;42.524;12.052;2022-08-01T09:22:05;96756.31;;;27.69;39.41
56944;BME280;42848;42.524;12.052;2022-08-01T09:24:31;96751.47;;;27.73;37.95
56944;BME280;42848;42.524;12.052;2022-08-01T09:26:58;96744.69;;;27.90;38.94
56944;BME280;42848;42.524;12.052;2022-08-01T09:29:29;96746.59;;;27.57;37.74
56944;BME280;42848;42.524;12.052;2022-08-01T09:31:55;96753.53;;;27.69;35.81
56944;BME280;42848;42.524;12.052;2022-08-01T09:34:29;96750.38;;;27.67;37.02
56944;BME280;42848;42.524;12.052;2022-08-01T09:37:04;96749.59;;;27.66;36.88
56944;BME280;42848;42.524;12.052;2022-08-01T09:39:33;96751.47;;;27.73;36.43
56944;BME280;42848;42.524;12.052;2022-08-01T09:42:21;96752.00;;;27.84;35.74
56944;BME280;42848;42.524;12.052;2022-08-01T09:44:47;96741.63;;;27.85;36.48
56944;BME280;42848;42.524;12.052;2022-08-01T09:47:13;96746.41;;;27.84;36.95
56944;BME280;42848;42.524;12.052;2022-08-01T09:49:41;96739.34;;;27.80;37.17
56944;BME280;42848;42.524;12.052;2022-08-01T09:52:18;96738.75;;;28.04;39.12
56944;BME280;42848;42.524;12.052;2022-08-01T09:54:57;96742.44;;;28.01;36.50
56944;BME280;42848;42.524;12.052;2022-08-01T09:57:25;96741.75;;;28.14;35.41
56944;BME280;42848;42.524;12.052;2022-08-01T09:59:54;96733.28;;;28.17;37.11
56944;BME280;42848;42.524;12.052;2022-08-01T10:02:35;96738.09;;;28.33;37.87
56944;BME280;42848;42.524;12.052;2022-08-01T10:05:03;96733.91;;;28.57;37.29
56944;BME280;42848;42.524;12.052;2022-08-01T10:07:29;96719.91;;;28.25;36.89
56944;BME280;42848;42.524;12.052;2022-08-01T10:09:56;96727.09;;;28.87;38.08
56944;BME280;42848;42.524;12.052;2022-08-01T10:12:34;96729.31;;;28.96;37.52
56944;BME280;42848;42.524;12.052;2022-08-01T10:15:01;96722.31;;;28.88;35.04
56944;BME280;42848;42.524;12.052;2022-08-01T10:17:27;96723.56;;;28.71;35.12
56944;BME280;42848;42.524;12.052;2022-08-01T10:19:54;96725.53;;;28.41;35.01
56944;BME280;42848;42.524;12.052;2022-08-01T10:22:23;96724.56;;;28.48;33.94
56944;BME280;42848;42.524;12.052;2022-08-01T10:24:50;96715.91;;;28.58;33.27
56944;BME280;42848;42.524;12.052;2022-08-01T10:27:20;96721.31;;;28.66;34.51
56944;BME280;42848;42.524;12.052;2022-08-01T10:29:50;96720.28;;;28.59;33.53
56944;BME280;42848;42.524;12.052;2022-08-01T10:32:17;96720.53;;;28.65;32.46
56944;BME280;42848;42.524;12.052;2022-08-01T10:34:43;96715.41;;;28.64;32.75
56944;BME280;42848;42.524;12.052;2022-08-01T10:37:10;96711.25;;;29.13;33.57
56944;BME280;42848;42.524;12.052;2022-08-01T10:39:39;96705.38;;;28.95;31.90
56944;BME280;42848;42.524;12.052;2022-08-01T10:42:05;96699.13;;;28.91;31.21
56944;BME280;42848;42.524;12.052;2022-08-01T10:44:31;96705.84;;;29.35;32.80
56944;BME280;42848;42.524;12.052;2022-08-01T10:47:05;96704.22;;;29.22;30.85
56944;BME280;42848;42.524;12.052;2022-08-01T10:49:34;96699.59;;;29.02;30.15
56944;BME280;42848;42.524;12.052;2022-08-01T10:52:02;96699.56;;;29.31;30.87
56944;BME280;42848;42.524;12.052;2022-08-01T10:54:28;96696.03;;;29.69;32.24
56944;BME280;42848;42.524;12.052;2022-08-01T10:56:54;96693.56;;;29.45;31.82
56944;BME280;42848;42.524;12.052;2022-08-01T10:59:24;96691.53;;;29.46;31.88
56944;BME280;42848;42.524;12.052;2022-08-01T11:02:04;96696.09;;;29.40;31.78
56944;BME280;42848;42.524;12.052;2022-08-01T11:07:07;96683.28;;;29.68;32.02
56944;BME280;42848;42.524;12.052;2022-08-01T11:09:41;96687.88;;;30.00;33.69
56944;BME280;42848;42.524;12.052;2022-08-01T11:12:12;96678.38;;;29.85;31.96
56944;BME280;42848;42.524;12.052;2022-08-01T11:17:45;96677.88;;;30.24;32.93
56944;BME280;42848;42.524;12.052;2022-08-01T11:20:21;96662.75;;;30.35;32.55
56944;BME280;42848;42.524;12.052;2022-08-01T11:33:16;96645.25;;;30.43;32.21
56944;BME280;42848;42.524;12.052;2022-08-01T11:36:18;96651.28;;;30.42;31.55
56944;BME280;42848;42.524;12.052;2022-08-01T11:39:33;96664.25;;;30.14;30.97
56944;BME280;42848;42.524;12.052;2022-08-01T11:41:36;96655.28;;;30.19;31.29
56944;BME280;42848;42.524;12.052;2022-08-01T11:44:17;96647.66;;;30.54;31.45
56944;BME280;42848;42.524;12.052;2022-08-01T11:49:31;96646.28;;;30.71;31.10
56944;BME280;42848;42.524;12.052;2022-08-01T11:52:09;96644.22;;;30.84;30.99
56944;BME280;42848;42.524;12.052;2022-08-01T11:54:37;96649.44;;;30.73;30.29
56944;BME280;42848;42.524;12.052;2022-08-01T11:57:13;96649.69;;;30.66;30.13
56944;BME280;42848;42.524;12.052;2022-08-01T11:59:44;96643.22;;;30.78;30.38
56944;BME280;42848;42.524;12.052;2022-08-01T12:02:25;96632.47;;;31.21;32.46
56944;BME280;42848;42.524;12.052;2022-08-01T12:07:29;96623.81;;;30.84;29.42
56944;BME280;42848;42.524;12.052;2022-08-01T12:10:06;96631.28;;;31.09;31.21
56944;BME280;42848;42.524;12.052;2022-08-01T12:12:33;96614.34;;;31.12;30.89
56944;BME280;42848;42.524;12.052;2022-08-01T12:15:02;96619.69;;;31.20;30.27
56944;BME280;42848;42.524;12.052;2022-08-01T12:17:31;96627.38;;;31.28;30.36
56944;BME280;42848;42.524;12.052;2022-08-01T12:19:57;96620.47;;;31.20;29.23
56944;BME280;42848;42.524;12.052;2022-08-01T12:22:24;96612.00;;;31.42;30.63
56944;BME280;42848;42.524;12.052;2022-08-01T12:24:51;96612.75;;;31.33;30.18
56944;BME280;42848;42.524;12.052;2022-08-01T12:27:26;96616.44;;;31.21;28.63
56944;BME280;42848;42.524;12.052;2022-08-01T12:29:51;96608.72;;;31.12;28.24
56944;BME280;42848;42.524;12.052;2022-08-01T12:32:22;96613.03;;;31.26;29.16
56944;BME280;42848;42.524;12.052;2022-08-01T12:34:49;96606.00;;;31.22;29.47
56944;BME280;42848;42.524;12.052;2022-08-01T12:37:16;96610.94;;;30.96;28.52
56944;BME280;42848;42.524;12.052;2022-08-01T12:39:43;96603.06;;;30.81;29.11
56944;BME280;42848;42.524;12.052;2022-08-01T12:42:09;96603.91;;;30.69;30.16
56944;BME280;42848;42.524;12.052;2022-08-01T12:44:37;96602.03;;;31.10;32.76
56944;BME280;42848;42.524;12.052;2022-08-01T12:47:05;96598.56;;;31.06;31.43
56944;BME280;42848;42.524;12.052;2022-08-01T12:49:32;96601.41;;;31.37;30.52
56944;BME280;42848;42.524;12.052;2022-08-01T12:51:58;96600.38;;;31.62;30.30
56944;BME280;42848;42.524;12.052;2022-08-01T12:54:24;96599.16;;;31.63;29.68
56944;BME280;42848;42.524;12.052;2022-08-01T12:56:51;96594.19;;;31.05;30.62
56944;BME280;42848;42.524;12.052;2022-08-01T12:59:23;96594.09;;;31.39;29.88
56944;BME280;42848;42.524;12.052;2022-08-01T13:01:54;96585.97;;;31.41;29.97
56944;BME280;42848;42.524;12.052;2022-08-01T13:04:21;96592.34;;;31.11;29.75
56944;BME280;42848;42.524;12.052;2022-08-01T13:06:52;96590.97;;;31.15;29.75
56944;BME280;42848;42.524;12.052;2022-08-01T13:09:18;96593.31;;;31.39;29.17
56944;BME280;42848;42.524;12.052;2022-08-01T13:11:44;96582.31;;;31.63;29.18
56944;BME280;42848;42.524;12.052;2022-08-01T13:14:26;96587.69;;;31.79;29.62
56944;BME280;42848;42.524;12.052;2022-08-01T13:16:52;96595.53;;;31.53;28.08
56944;BME280;42848;42.524;12.052;2022-08-01T13:19:18;96583.50;;;31.84;29.03
56944;BME280;42848;42.524;12.052;2022-08-01T13:22:01;96594.94;;;32.17;28.77
56944;BME280;42848;42.524;12.052;2022-08-01T13:24:28;96586.84;;;32.19;29.12
56944;BME280;42848;42.524;12.052;2022-08-01T13:26:59;96582.63;;;32.23;28.50
56944;BME280;42848;42.524;12.052;2022-08-01T13:29:43;96579.03;;;32.23;28.09